sensor_id;sensor_type;location;lat;lon;timestamp;P1;durP1;ratioP1;P2;durP2;ratioP2
23594;SDS011;11975;47.674;9.472;2023-07-22T00:02:21;1999.90;;;999.90;;
23594;SDS011;11975;47.674;9.472;2023-07-22T00:04:51;1999.90;;;999.90;;
23594;SDS011;11975;47.674;9.472;2023-07-22T00:07:17;1999.90;;;999.90;;
23594;SDS011;11975;47.674;9.472;2023-07-22T00:09:43;1999.90;;;999.90;;
23594;SDS011;11975;47.674;9.472;2023-07-22T00:12:09;1999.90;;;999.90;;
23594;SDS011;11975;47.674;9.472;2023-07-22T00:14:38;1999.90;;;999.90;;
23594;SDS011;11975;47.674;9.472;2023-07-22T00:17:05;1999.90;;;999.90;;
23594;SDS011;11975;47.674;9.472;2023-07-22T00:19:31;1999.90;;;999.90;;
23594;SDS011;11975;47.674;9.472;2023-07-22T00:21:57;1999.90;;;999.90;;
23594;SDS011;11975;47.674;9.472;2023-07-22T00:24:23;1999.90;;;999.90;;
23594;SDS011;11975;47.674;9.472;2023-07-22T00:26:49;1999.90;;;999.90;;
23594;SDS011;11975;47.674;9.472;2023-07-22T00:29:17;1999.90;;;999.90;;
23594;SDS011;11975;47.674;9.472;2023-07-22T00:31:43;1999.90;;;999.90;;
23594;SDS011;11975;47.674;9.472;2023-07-22T00:34:09;1999.90;;;999.90;;
23594;SDS011;11975;47.674;9.472;2023-07-22T00:36:36;1999.90;;;999.90;;
23594;SDS011;11975;47.674;9.472;2023-07-22T00:39:03;1999.90;;;999.90;;
23594;SDS011;11975;47.674;9.472;2023-07-22T00:41:30;1999.90;;;999.90;;
23594;SDS011;11975;47.674;9.472;2023-07-22T00:43:56;1999.90;;;999.90;;
23594;SDS011;11975;47.674;9.472;2023-07-22T00:46:22;1999.90;;;999.90;;
23594;SDS011;11975;47.674;9.472;2023-07-22T00:48:48;1999.90;;;999.90;;
23594;SDS011;11975;47.674;9.472;2023-07-22T00:51:15;1999.90;;;999.90;;
23594;SDS011;11975;47.674;9.472;2023-07-22T00:56:08;1999.90;;;999.90;;
23594;SDS011;11975;47.674;9.472;2023-07-22T00:58:34;1999.90;;;999.90;;
23594;SDS011;11975;47.674;9.472;2023-07-22T01:01:00;1999.90;;;999.90;;
23594;SDS011;11975;47.674;9.472;2023-07-22T01:03:26;1999.90;;;999.90;;
23594;SDS011;11975;47.674;9.472;2023-07-22T01:05:52;1999.90;;;999.90;;
23594;SDS011;11975;47.674;9.472;2023-07-22T01:08:20;1999.90;;;999.90;;
23594;SDS011;11975;47.674;9.472;2023-07-22T01:10:46;1999.90;;;999.90;;
23594;SDS011;11975;47.674;9.472;2023-07-22T01:13:13;1999.90;;;999.90;;
23594;SDS011;11975;47.674;9.472;2023-07-22T01:15:39;1999.90;;;999.90;;
23594;SDS011;11975;47.674;9.472;2023-07-22T01:18:05;1999.90;;;999.90;;
23594;SDS011;11975;47.674;9.472;2023-07-22T01:20:32;1999.90;;;999.90;;
23594;SDS011;11975;47.674;9.472;2023-07-22T01:22:58;1999.90;;;999.90;;
23594;SDS011;11975;47.674;9.472;2023-07-22T01:25:24;1999.90;;;999.90;;
23594;SDS011;11975;47.674;9.472;2023-07-22T01:27:50;1999.90;;;999.90;;
23594;SDS011;11975;47.674;9.472;2023-07-22T01:30:17;1999.90;;;999.90;;
23594;SDS011;11975;47.674;9.472;2023-07-22T01:32:43;1999.90;;;999.90;;
23594;SDS011;11975;47.674;9.472;2023-07-22T01:35:09;1999.90;;;999.90;;
23594;SDS011;11975;47.674;9.472;2023-07-22T01:37:35;1999.90;;;999.90;;
23594;SDS011;11975;47.674;9.472;2023-07-22T01:40:01;1999.90;;;999.90;;
23594;SDS011;11975;47.674;9.472;2023-07-22T01:42:38;1999.90;;;999.90;;
23594;SDS011;11975;47.674;9.472;2023-07-22T01:45:05;1999.90;;;999.90;;
23594;SDS011;11975;47.674;9.472;2023-07-22T01:47:33;1999.90;;;999.90;;
23594;SDS011;11975;47.674;9.472;2023-07-22T01:50:03;1999.90;;;999.90;;
23594;SDS011;11975;47.674;9.472;2023-07-22T01:52:31;1999.90;;;999.90;;
23594;SDS011;11975;47.674;9.472;2023-07-22T01:54:57;1999.90;;;999.90;;
23594;SDS011;11975;47.674;9.472;2023-07-22T01:57:23;1999.90;;;999.90;;
23594;SDS011;11975;47.674;9.472;2023-07-22T01:59:50;1999.90;;;999.90;;
23594;SDS011;11975;47.674;9.472;2023-07-22T02:02:16;1999.90;;;999.90;;
23594;SDS011;11975;47.674;9.472;2023-07-22T02:04:42;1999.90;;;999.90;;
23594;SDS011;11975;47.674;9.472;2023-07-22T02:07:08;1999.90;;;999.90;;
23594;SDS011;11975;47.674;9.472;2023-07-22T02:09:34;1999.90;;;999.90;;
23594;SDS011;11975;47.674;9.472;2023-07-22T02:12:00;1999.90;;;999.90;;
23594;SDS011;11975;47.674;9.472;2023-07-22T02:14:27;1999.90;;;999.90;;
23594;SDS011;11975;47.674;9.472;2023-07-22T02:16:53;1999.90;;;999.90;;
23594;SDS011;11975;47.674;9.472;2023-07-22T02:19:19;1999.90;;;999.90;;
23594;SDS011;11975;47.674;9.472;2023-07-22T02:21:45;1999.90;;;999.90;;
23594;SDS011;11975;47.674;9.472;2023-07-22T02:24:11;1999.90;;;999.90;;
23594;SDS011;11975;47.674;9.472;2023-07-22T02:26:36;1999.90;;;999.90;;
23594;SDS011;11975;47.674;9.472;2023-07-22T02:29:02;1999.90;;;999.90;;
23594;SDS011;11975;47.674;9.472;2023-07-22T02:31:28;1999.90;;;999.90;;
23594;SDS011;11975;47.674;9.472;2023-07-22T02:33:54;1999.90;;;999.90;;
23594;SDS011;11975;47.674;9.472;2023-07-22T02:36:20;1999.90;;;999.90;;
23594;SDS011;11975;47.674;9.472;2023-07-22T02:38:46;1999.90;;;999.90;;
23594;SDS011;11975;47.674;9.472;2023-07-22T02:41:12;1999.90;;;999.90;;
23594;SDS011;11975;47.674;9.472;2023-07-22T02:43:38;1999.90;;;999.90;;
23594;SDS011;11975;47.674;9.472;2023-07-22T02:46:06;1999.90;;;999.90;;
23594;SDS011;11975;47.674;9.472;2023-07-22T02:48:33;1999.90;;;999.90;;
23594;SDS011;11975;47.674;9.472;2023-07-22T02:51:06;1999.90;;;999.90;;
23594;SDS011;11975;47.674;9.472;2023-07-22T02:53:33;1999.90;;;999.90;;
23594;SDS011;11975;47.674;9.472;2023-07-22T02:55:59;1999.90;;;999.90;;
23594;SDS011;11975;47.674;9.472;2023-07-22T02:58:25;1999.90;;;999.90;;
23594;SDS011;11975;47.674;9.472;2023-07-22T03:00:51;1999.90;;;999.90;;
23594;SDS011;11975;47.674;9.472;2023-07-22T03:03:17;1999.90;;;999.90;;
23594;SDS011;11975;47.674;9.472;2023-07-22T03:05:44;1999.90;;;999.90;;
23594;SDS011;11975;47.674;9.472;2023-07-22T03:08:10;1999.90;;;999.90;;
23594;SDS011;11975;47.674;9.472;2023-07-22T03:10:36;1999.90;;;999.90;;
23594;SDS011;11975;47.674;9.472;2023-07-22T03:13:02;1999.90;;;999.90;;
23594;SDS011;11975;47.674;9.472;2023-07-22T03:15:29;1999.90;;;999.90;;
23594;SDS011;11975;47.674;9.472;2023-07-22T03:17:55;1999.90;;;999.90;;
23594;SDS011;11975;47.674;9.472;2023-07-22T03:20:21;1999.90;;;999.90;;
23594;SDS011;11975;47.674;9.472;2023-07-22T03:22:48;1999.90;;;999.90;;
23594;SDS011;11975;47.674;9.472;2023-07-22T03:25:14;1999.90;;;999.90;;
23594;SDS011;11975;47.674;9.472;2023-07-22T03:27:43;1999.90;;;999.90;;
23594;SDS011;11975;47.674;9.472;2023-07-22T03:32:36;1999.90;;;999.90;;
23594;SDS011;11975;47.674;9.472;2023-07-22T03:35:02;1999.90;;;999.90;;
23594;SDS011;11975;47.674;9.472;2023-07-22T03:37:29;1999.90;;;999.90;;
23594;SDS011;11975;47.674;9.472;2023-07-22T03:39:55;1999.90;;;999.90;;
23594;SDS011;11975;47.674;9.472;2023-07-22T03:42:21;1999.90;;;999.90;;
23594;SDS011;11975;47.674;9.472;2023-07-22T03:44:47;1999.90;;;999.90;;
23594;SDS011;11975;47.674;9.472;2023-07-22T03:47:13;1999.90;;;999.90;;
23594;SDS011;11975;47.674;9.472;2023-07-22T03:49:39;1999.90;;;999.90;;
23594;SDS011;11975;47.674;9.472;2023-07-22T03:52:05;1999.90;;;999.90;;
23594;SDS011;11975;47.674;9.472;2023-07-22T03:54:31;1999.90;;;999.90;;
23594;SDS011;11975;47.674;9.472;2023-07-22T03:56:57;1999.90;;;999.90;;
23594;SDS011;11975;47.674;9.472;2023-07-22T03:59:23;1999.90;;;999.90;;
23594;SDS011;11975;47.674;9.472;2023-07-22T04:01:49;1999.90;;;999.90;;
23594;SDS011;11975;47.674;9.472;2023-07-22T04:04:15;1999.90;;;999.90;;
23594;SDS011;11975;47.674;9.472;2023-07-22T04:06:41;1999.90;;;999.90;;
23594;SDS011;11975;47.674;9.472;2023-07-22T04:09:07;1999.90;;;999.90;;
23594;SDS011;11975;47.674;9.472;2023-07-22T04:11:34;1999.90;;;999.90;;
23594;SDS011;11975;47.674;9.472;2023-07-22T04:14:00;1999.90;;;999.90;;
23594;SDS011;11975;47.674;9.472;2023-07-22T04:16:26;1999.90;;;999.90;;
23594;SDS011;11975;47.674;9.472;2023-07-22T04:18:51;1999.90;;;999.90;;
23594;SDS011;11975;47.674;9.472;2023-07-22T04:21:17;1999.90;;;999.90;;
23594;SDS011;11975;47.674;9.472;2023-07-22T04:23:43;1999.90;;;999.90;;
23594;SDS011;11975;47.674;9.472;2023-07-22T04:26:09;1999.90;;;999.90;;
23594;SDS011;11975;47.674;9.472;2023-07-22T04:28:35;1999.90;;;999.90;;
23594;SDS011;11975;47.674;9.472;2023-07-22T04:31:01;1999.90;;;999.90;;
23594;SDS011;11975;47.674;9.472;2023-07-22T04:33:29;1999.90;;;999.90;;
23594;SDS011;11975;47.674;9.472;2023-07-22T04:35:59;1999.90;;;999.90;;
23594;SDS011;11975;47.674;9.472;2023-07-22T04:38:25;1999.90;;;999.90;;
23594;SDS011;11975;47.674;9.472;2023-07-22T04:40:51;1999.90;;;999.90;;
23594;SDS011;11975;47.674;9.472;2023-07-22T04:43:17;1999.90;;;999.90;;
23594;SDS011;11975;47.674;9.472;2023-07-22T04:45:46;1999.90;;;999.90;;
23594;SDS011;11975;47.674;9.472;2023-07-22T04:48:15;1999.90;;;999.90;;
23594;SDS011;11975;47.674;9.472;2023-07-22T04:50:42;1999.90;;;999.90;;
23594;SDS011;11975;47.674;9.472;2023-07-22T04:53:11;1999.90;;;999.90;;
23594;SDS011;11975;47.674;9.472;2023-07-22T04:55:40;1999.90;;;999.90;;
23594;SDS011;11975;47.674;9.472;2023-07-22T04:58:07;1999.90;;;999.90;;
23594;SDS011;11975;47.674;9.472;2023-07-22T05:02:59;1999.90;;;999.90;;
23594;SDS011;11975;47.674;9.472;2023-07-22T05:05:26;1999.90;;;999.90;;
23594;SDS011;11975;47.674;9.472;2023-07-22T05:07:51;1999.90;;;999.90;;
23594;SDS011;11975;47.674;9.472;2023-07-22T05:10:18;1999.90;;;999.90;;
23594;SDS011;11975;47.674;9.472;2023-07-22T05:12:44;1999.90;;;999.90;;
23594;SDS011;11975;47.674;9.472;2023-07-22T05:15:11;1999.90;;;999.90;;
23594;SDS011;11975;47.674;9.472;2023-07-22T05:17:37;1999.90;;;999.90;;
23594;SDS011;11975;47.674;9.472;2023-07-22T05:20:04;1999.90;;;999.90;;
23594;SDS011;11975;47.674;9.472;2023-07-22T05:22:35;1999.90;;;999.90;;
23594;SDS011;11975;47.674;9.472;2023-07-22T05:25:03;1999.90;;;999.90;;
23594;SDS011;11975;47.674;9.472;2023-07-22T05:27:30;1999.90;;;999.90;;
23594;SDS011;11975;47.674;9.472;2023-07-22T05:29:56;1999.90;;;999.90;;
23594;SDS011;11975;47.674;9.472;2023-07-22T05:32:22;1999.90;;;999.90;;
23594;SDS011;11975;47.674;9.472;2023-07-22T05:34:48;1999.90;;;999.90;;
23594;SDS011;11975;47.674;9.472;2023-07-22T05:37:14;1999.90;;;999.90;;
23594;SDS011;11975;47.674;9.472;2023-07-22T05:39:40;1999.90;;;999.90;;
23594;SDS011;11975;47.674;9.472;2023-07-22T05:42:06;1999.90;;;999.90;;
23594;SDS011;11975;47.674;9.472;2023-07-22T05:44:32;1999.90;;;999.90;;
23594;SDS011;11975;47.674;9.472;2023-07-22T05:46:58;1999.90;;;999.90;;
23594;SDS011;11975;47.674;9.472;2023-07-22T05:49:24;1999.90;;;999.90;;
23594;SDS011;11975;47.674;9.472;2023-07-22T05:51:50;1999.90;;;999.90;;
23594;SDS011;11975;47.674;9.472;2023-07-22T05:54:15;1999.90;;;999.90;;
23594;SDS011;11975;47.674;9.472;2023-07-22T05:56:41;1999.90;;;999.90;;
23594;SDS011;11975;47.674;9.472;2023-07-22T05:59:07;1999.90;;;999.90;;
23594;SDS011;11975;47.674;9.472;2023-07-22T06:01:33;1999.90;;;999.90;;
23594;SDS011;11975;47.674;9.472;2023-07-22T06:04:00;1999.90;;;999.90;;
23594;SDS011;11975;47.674;9.472;2023-07-22T06:06:26;1999.90;;;999.90;;
23594;SDS011;11975;47.674;9.472;2023-07-22T06:08:53;1999.90;;;999.90;;
23594;SDS011;11975;47.674;9.472;2023-07-22T06:11:18;1999.90;;;999.90;;
23594;SDS011;11975;47.674;9.472;2023-07-22T06:13:44;1999.90;;;999.90;;
23594;SDS011;11975;47.674;9.472;2023-07-22T06:16:10;1999.90;;;999.90;;
23594;SDS011;11975;47.674;9.472;2023-07-22T06:18:36;1999.90;;;999.90;;
23594;SDS011;11975;47.674;9.472;2023-07-22T06:21:02;1999.90;;;999.90;;
23594;SDS011;11975;47.674;9.472;2023-07-22T06:23:28;1999.90;;;999.90;;
23594;SDS011;11975;47.674;9.472;2023-07-22T06:25:54;1999.90;;;999.90;;
23594;SDS011;11975;47.674;9.472;2023-07-22T06:28:20;1999.90;;;999.90;;
23594;SDS011;11975;47.674;9.472;2023-07-22T06:30:46;1999.90;;;999.90;;
23594;SDS011;11975;47.674;9.472;2023-07-22T06:33:12;1999.90;;;999.90;;
23594;SDS011;11975;47.674;9.472;2023-07-22T06:35:38;1999.90;;;999.90;;
23594;SDS011;11975;47.674;9.472;2023-07-22T06:38:04;1999.90;;;999.90;;
23594;SDS011;11975;47.674;9.472;2023-07-22T06:40:30;1999.90;;;999.90;;
23594;SDS011;11975;47.674;9.472;2023-07-22T06:42:56;1999.90;;;999.90;;
23594;SDS011;11975;47.674;9.472;2023-07-22T06:45:22;1999.90;;;999.90;;
23594;SDS011;11975;47.674;9.472;2023-07-22T06:47:47;1999.90;;;999.90;;
23594;SDS011;11975;47.674;9.472;2023-07-22T06:50:13;1999.90;;;999.90;;
23594;SDS011;11975;47.674;9.472;2023-07-22T06:52:39;1999.90;;;999.90;;
23594;SDS011;11975;47.674;9.472;2023-07-22T06:55:05;1999.90;;;999.90;;
23594;SDS011;11975;47.674;9.472;2023-07-22T06:57:32;1999.90;;;999.90;;
23594;SDS011;11975;47.674;9.472;2023-07-22T06:59:58;1999.90;;;999.90;;
23594;SDS011;11975;47.674;9.472;2023-07-22T07:02:25;1999.90;;;999.90;;
23594;SDS011;11975;47.674;9.472;2023-07-22T07:04:52;1999.90;;;999.90;;
23594;SDS011;11975;47.674;9.472;2023-07-22T07:07:18;1999.90;;;999.90;;
23594;SDS011;11975;47.674;9.472;2023-07-22T07:09:44;1999.90;;;999.90;;
23594;SDS011;11975;47.674;9.472;2023-07-22T07:12:09;1999.90;;;999.90;;
23594;SDS011;11975;47.674;9.472;2023-07-22T07:14:35;1999.90;;;999.90;;
23594;SDS011;11975;47.674;9.472;2023-07-22T07:17:02;1999.90;;;999.90;;
23594;SDS011;11975;47.674;9.472;2023-07-22T07:19:28;1999.90;;;999.90;;
23594;SDS011;11975;47.674;9.472;2023-07-22T07:21:54;1999.90;;;999.90;;
23594;SDS011;11975;47.674;9.472;2023-07-22T07:24:20;1999.90;;;999.90;;
23594;SDS011;11975;47.674;9.472;2023-07-22T07:26:46;1999.90;;;999.90;;
23594;SDS011;11975;47.674;9.472;2023-07-22T07:29:12;1999.90;;;999.90;;
23594;SDS011;11975;47.674;9.472;2023-07-22T07:31:38;1999.90;;;999.90;;
23594;SDS011;11975;47.674;9.472;2023-07-22T07:34:04;1999.90;;;999.90;;
23594;SDS011;11975;47.674;9.472;2023-07-22T07:36:31;1999.90;;;999.90;;
23594;SDS011;11975;47.674;9.472;2023-07-22T07:41:23;1999.90;;;999.90;;
23594;SDS011;11975;47.674;9.472;2023-07-22T07:43:49;1999.90;;;999.90;;
23594;SDS011;11975;47.674;9.472;2023-07-22T07:46:16;21.50;;;20.20;;
23594;SDS011;11975;47.674;9.472;2023-07-22T07:48:44;1999.90;;;999.90;;
23594;SDS011;11975;47.674;9.472;2023-07-22T07:51:12;21.55;;;20.25;;
23594;SDS011;11975;47.674;9.472;2023-07-22T07:53:39;21.55;;;20.27;;
23594;SDS011;11975;47.674;9.472;2023-07-22T07:56:05;20.90;;;19.70;;
23594;SDS011;11975;47.674;9.472;2023-07-22T07:58:31;21.37;;;20.17;;
23594;SDS011;11975;47.674;9.472;2023-07-22T08:00:57;21.00;;;19.80;;
23594;SDS011;11975;47.674;9.472;2023-07-22T08:03:23;21.70;;;20.40;;
23594;SDS011;11975;47.674;9.472;2023-07-22T08:05:49;21.05;;;19.85;;
23594;SDS011;11975;47.674;9.472;2023-07-22T08:08:14;22.43;;;20.93;;
23594;SDS011;11975;47.674;9.472;2023-07-22T08:10:40;21.63;;;20.23;;
23594;SDS011;11975;47.674;9.472;2023-07-22T08:15:33;20.70;;;19.60;;
23594;SDS011;11975;47.674;9.472;2023-07-22T08:18:00;21.75;;;20.50;;
23594;SDS011;11975;47.674;9.472;2023-07-22T08:20:26;20.55;;;19.38;;
23594;SDS011;11975;47.674;9.472;2023-07-22T08:22:51;20.60;;;19.40;;
23594;SDS011;11975;47.674;9.472;2023-07-22T08:25:17;21.73;;;20.23;;
23594;SDS011;11975;47.674;9.472;2023-07-22T08:27:43;20.27;;;19.15;;
23594;SDS011;11975;47.674;9.472;2023-07-22T08:30:11;21.60;;;20.10;;
23594;SDS011;11975;47.674;9.472;2023-07-22T08:32:37;19.87;;;18.77;;
23594;SDS011;11975;47.674;9.472;2023-07-22T08:35:03;19.70;;;18.60;;
23594;SDS011;11975;47.674;9.472;2023-07-22T08:37:30;19.95;;;18.85;;
23594;SDS011;11975;47.674;9.472;2023-07-22T08:39:56;19.63;;;18.52;;
23594;SDS011;11975;47.674;9.472;2023-07-22T08:42:22;20.43;;;19.23;;
23594;SDS011;11975;47.674;9.472;2023-07-22T08:44:49;21.20;;;20.00;;
23594;SDS011;11975;47.674;9.472;2023-07-22T08:47:22;21.90;;;20.65;;
23594;SDS011;11975;47.674;9.472;2023-07-22T08:49:50;22.13;;;20.85;;
23594;SDS011;11975;47.674;9.472;2023-07-22T08:52:17;22.83;;;21.42;;
23594;SDS011;11975;47.674;9.472;2023-07-22T08:54:44;21.27;;;20.05;;
23594;SDS011;11975;47.674;9.472;2023-07-22T08:57:11;21.92;;;20.67;;
23594;SDS011;11975;47.674;9.472;2023-07-22T08:59:37;20.98;;;19.77;;
23594;SDS011;11975;47.674;9.472;2023-07-22T09:02:04;21.85;;;20.55;;
23594;SDS011;11975;47.674;9.472;2023-07-22T09:04:31;20.92;;;19.73;;
23594;SDS011;11975;47.674;9.472;2023-07-22T09:06:57;20.52;;;19.42;;
23594;SDS011;11975;47.674;9.472;2023-07-22T09:09:24;21.95;;;20.65;;
23594;SDS011;11975;47.674;9.472;2023-07-22T09:11:51;20.88;;;19.67;;
23594;SDS011;11975;47.674;9.472;2023-07-22T09:14:18;20.73;;;19.38;;
23594;SDS011;11975;47.674;9.472;2023-07-22T09:16:45;20.65;;;19.45;;
23594;SDS011;11975;47.674;9.472;2023-07-22T09:19:11;20.63;;;19.42;;
23594;SDS011;11975;47.674;9.472;2023-07-22T09:21:37;21.13;;;19.87;;
23594;SDS011;11975;47.674;9.472;2023-07-22T09:24:22;20.03;;;18.93;;
23594;SDS011;11975;47.674;9.472;2023-07-22T09:26:49;20.00;;;18.90;;
23594;SDS011;11975;47.674;9.472;2023-07-22T09:29:15;19.50;;;18.40;;
23594;SDS011;11975;47.674;9.472;2023-07-22T09:31:51;19.73;;;18.63;;
23594;SDS011;11975;47.674;9.472;2023-07-22T09:34:19;19.88;;;18.77;;
23594;SDS011;11975;47.674;9.472;2023-07-22T09:39:17;19.25;;;18.15;;
23594;SDS011;11975;47.674;9.472;2023-07-22T09:41:44;19.70;;;18.60;;
23594;SDS011;11975;47.674;9.472;2023-07-22T09:44:10;20.00;;;18.70;;
23594;SDS011;11975;47.674;9.472;2023-07-22T09:46:37;20.60;;;19.40;;
23594;SDS011;11975;47.674;9.472;2023-07-22T09:49:04;21.13;;;19.92;;
23594;SDS011;11975;47.674;9.472;2023-07-22T09:51:34;20.63;;;19.42;;
23594;SDS011;11975;47.674;9.472;2023-07-22T09:54:02;20.40;;;19.20;;
23594;SDS011;11975;47.674;9.472;2023-07-22T09:56:28;20.33;;;19.23;;
23594;SDS011;11975;47.674;9.472;2023-07-22T09:58:55;20.95;;;19.70;;
23594;SDS011;11975;47.674;9.472;2023-07-22T10:01:23;21.48;;;20.17;;
23594;SDS011;11975;47.674;9.472;2023-07-22T10:03:55;21.55;;;20.35;;
23594;SDS011;11975;47.674;9.472;2023-07-22T10:06:27;21.75;;;20.45;;
23594;SDS011;11975;47.674;9.472;2023-07-22T10:08:58;21.85;;;20.55;;
23594;SDS011;11975;47.674;9.472;2023-07-22T10:11:37;21.73;;;20.52;;
23594;SDS011;11975;47.674;9.472;2023-07-22T10:14:03;21.67;;;20.48;;
23594;SDS011;11975;47.674;9.472;2023-07-22T10:16:29;21.65;;;20.35;;
23594;SDS011;11975;47.674;9.472;2023-07-22T10:18:56;21.15;;;19.95;;
23594;SDS011;11975;47.674;9.472;2023-07-22T10:21:24;20.92;;;19.52;;
23594;SDS011;11975;47.674;9.472;2023-07-22T10:23:50;20.73;;;19.58;;
23594;SDS011;11975;47.674;9.472;2023-07-22T10:26:17;20.98;;;19.67;;
23594;SDS011;11975;47.674;9.472;2023-07-22T10:28:44;20.63;;;19.23;;
23594;SDS011;11975;47.674;9.472;2023-07-22T10:31:10;20.33;;;19.23;;
23594;SDS011;11975;47.674;9.472;2023-07-22T10:33:38;19.48;;;18.38;;
23594;SDS011;11975;47.674;9.472;2023-07-22T10:36:05;18.80;;;17.80;;
23594;SDS011;11975;47.674;9.472;2023-07-22T10:38:32;20.23;;;19.02;;
23594;SDS011;11975;47.674;9.472;2023-07-22T10:43:31;19.65;;;18.55;;
23594;SDS011;11975;47.674;9.472;2023-07-22T10:46:07;19.42;;;18.33;;
23594;SDS011;11975;47.674;9.472;2023-07-22T10:48:36;19.38;;;18.27;;
23594;SDS011;11975;47.674;9.472;2023-07-22T10:51:21;19.80;;;18.70;;
23594;SDS011;11975;47.674;9.472;2023-07-22T10:53:47;19.10;;;18.00;;
23594;SDS011;11975;47.674;9.472;2023-07-22T11:04:03;20.33;;;19.15;;
23594;SDS011;11975;47.674;9.472;2023-07-22T11:06:29;19.55;;;18.45;;
23594;SDS011;11975;47.674;9.472;2023-07-22T11:08:55;20.33;;;18.95;;
23594;SDS011;11975;47.674;9.472;2023-07-22T11:11:31;19.15;;;18.08;;
23594;SDS011;11975;47.674;9.472;2023-07-22T11:14:21;19.15;;;18.08;;
23594;SDS011;11975;47.674;9.472;2023-07-22T11:16:48;19.60;;;18.48;;
23594;SDS011;11975;47.674;9.472;2023-07-22T11:19:14;19.50;;;18.37;;
23594;SDS011;11975;47.674;9.472;2023-07-22T11:21:41;20.05;;;18.95;;
23594;SDS011;11975;47.674;9.472;2023-07-22T11:24:11;20.08;;;18.98;;
23594;SDS011;11975;47.674;9.472;2023-07-22T11:26:37;20.25;;;19.05;;
23594;SDS011;11975;47.674;9.472;2023-07-22T11:29:04;19.75;;;18.65;;
23594;SDS011;11975;47.674;9.472;2023-07-22T11:31:34;20.20;;;19.10;;
23594;SDS011;11975;47.674;9.472;2023-07-22T11:34:02;20.08;;;18.98;;
23594;SDS011;11975;47.674;9.472;2023-07-22T11:36:29;19.77;;;18.65;;
23594;SDS011;11975;47.674;9.472;2023-07-22T11:39:05;20.10;;;18.90;;
23594;SDS011;11975;47.674;9.472;2023-07-22T11:44:01;19.92;;;18.83;;
23594;SDS011;11975;47.674;9.472;2023-07-22T11:46:28;19.40;;;17.98;;
23594;SDS011;11975;47.674;9.472;2023-07-22T11:48:54;20.17;;;19.08;;
23594;SDS011;11975;47.674;9.472;2023-07-22T11:51:22;19.42;;;18.33;;
23594;SDS011;11975;47.674;9.472;2023-07-22T11:53:49;20.55;;;19.35;;
23594;SDS011;11975;47.674;9.472;2023-07-22T11:56:17;20.75;;;19.55;;
23594;SDS011;11975;47.674;9.472;2023-07-22T11:58:52;19.90;;;18.80;;
23594;SDS011;11975;47.674;9.472;2023-07-22T12:01:18;20.10;;;19.00;;
23594;SDS011;11975;47.674;9.472;2023-07-22T12:03:45;19.88;;;18.70;;
23594;SDS011;11975;47.674;9.472;2023-07-22T12:06:11;20.10;;;18.90;;
23594;SDS011;11975;47.674;9.472;2023-07-22T12:08:47;20.60;;;19.40;;
23594;SDS011;11975;47.674;9.472;2023-07-22T12:11:23;21.15;;;19.58;;
23594;SDS011;11975;47.674;9.472;2023-07-22T12:14:08;20.27;;;18.88;;
23594;SDS011;11975;47.674;9.472;2023-07-22T12:16:37;19.88;;;18.77;;
23594;SDS011;11975;47.674;9.472;2023-07-22T12:19:07;19.38;;;18.27;;
23594;SDS011;11975;47.674;9.472;2023-07-22T12:21:33;20.38;;;19.25;;
23594;SDS011;11975;47.674;9.472;2023-07-22T12:24:01;19.83;;;18.73;;
23594;SDS011;11975;47.674;9.472;2023-07-22T12:26:28;19.73;;;18.63;;
23594;SDS011;11975;47.674;9.472;2023-07-22T12:28:54;19.73;;;18.33;;
23594;SDS011;11975;47.674;9.472;2023-07-22T12:31:20;20.53;;;19.33;;
23594;SDS011;11975;47.674;9.472;2023-07-22T12:33:46;20.07;;;18.97;;
23594;SDS011;11975;47.674;9.472;2023-07-22T12:36:11;19.27;;;18.17;;
23594;SDS011;11975;47.674;9.472;2023-07-22T12:38:37;20.30;;;19.20;;
23594;SDS011;11975;47.674;9.472;2023-07-22T12:41:03;20.07;;;18.97;;
23594;SDS011;11975;47.674;9.472;2023-07-22T12:43:29;19.90;;;18.70;;
23594;SDS011;11975;47.674;9.472;2023-07-22T12:45:56;19.55;;;18.45;;
23594;SDS011;11975;47.674;9.472;2023-07-22T12:48:22;19.80;;;18.70;;
23594;SDS011;11975;47.674;9.472;2023-07-22T12:50:50;20.75;;;19.55;;
23594;SDS011;11975;47.674;9.472;2023-07-22T12:53:16;19.70;;;18.50;;
23594;SDS011;11975;47.674;9.472;2023-07-22T12:55:42;19.63;;;18.53;;
23594;SDS011;11975;47.674;9.472;2023-07-22T12:58:08;19.43;;;18.23;;
23594;SDS011;11975;47.674;9.472;2023-07-22T13:00:34;19.50;;;18.40;;
23594;SDS011;11975;47.674;9.472;2023-07-22T13:03:00;19.92;;;18.77;;
23594;SDS011;11975;47.674;9.472;2023-07-22T13:05:26;20.90;;;19.60;;
23594;SDS011;11975;47.674;9.472;2023-07-22T13:07:52;19.63;;;18.53;;
23594;SDS011;11975;47.674;9.472;2023-07-22T13:10:18;20.13;;;19.02;;
23594;SDS011;11975;47.674;9.472;2023-07-22T13:12:45;20.88;;;19.67;;
23594;SDS011;11975;47.674;9.472;2023-07-22T13:15:11;19.60;;;18.50;;
23594;SDS011;11975;47.674;9.472;2023-07-22T13:17:37;20.20;;;19.00;;
23594;SDS011;11975;47.674;9.472;2023-07-22T13:20:04;20.83;;;19.63;;
23594;SDS011;11975;47.674;9.472;2023-07-22T13:22:35;19.95;;;18.83;;
23594;SDS011;11975;47.674;9.472;2023-07-22T13:25:02;20.70;;;19.50;;
23594;SDS011;11975;47.674;9.472;2023-07-22T13:27:28;20.33;;;19.02;;
23594;SDS011;11975;47.674;9.472;2023-07-22T13:29:54;19.83;;;18.73;;
23594;SDS011;11975;47.674;9.472;2023-07-22T13:32:20;19.30;;;18.20;;
23594;SDS011;11975;47.674;9.472;2023-07-22T13:34:46;20.70;;;19.50;;
23594;SDS011;11975;47.674;9.472;2023-07-22T13:37:12;19.40;;;18.30;;
23594;SDS011;11975;47.674;9.472;2023-07-22T13:39:38;20.03;;;18.93;;
23594;SDS011;11975;47.674;9.472;2023-07-22T13:42:04;21.00;;;19.70;;
23594;SDS011;11975;47.674;9.472;2023-07-22T13:44:30;20.10;;;19.00;;
23594;SDS011;11975;47.674;9.472;2023-07-22T13:46:56;20.60;;;19.40;;
23594;SDS011;11975;47.674;9.472;2023-07-22T13:49:22;20.70;;;19.50;;
23594;SDS011;11975;47.674;9.472;2023-07-22T13:51:48;19.90;;;18.80;;
23594;SDS011;11975;47.674;9.472;2023-07-22T13:54:14;19.83;;;18.73;;
23594;SDS011;11975;47.674;9.472;2023-07-22T13:56:41;20.00;;;18.90;;
23594;SDS011;11975;47.674;9.472;2023-07-22T13:59:09;20.25;;;19.05;;
23594;SDS011;11975;47.674;9.472;2023-07-22T14:01:35;19.80;;;18.70;;
23594;SDS011;11975;47.674;9.472;2023-07-22T14:04:01;20.17;;;19.08;;
23594;SDS011;11975;47.674;9.472;2023-07-22T14:06:27;20.50;;;19.30;;
23594;SDS011;11975;47.674;9.472;2023-07-22T14:08:53;20.47;;;19.20;;
23594;SDS011;11975;47.674;9.472;2023-07-22T14:11:18;20.03;;;18.87;;
23594;SDS011;11975;47.674;9.472;2023-07-22T14:13:44;20.43;;;19.27;;
23594;SDS011;11975;47.674;9.472;2023-07-22T14:16:11;20.00;;;18.90;;
23594;SDS011;11975;47.674;9.472;2023-07-22T14:18:37;19.45;;;18.33;;
23594;SDS011;11975;47.674;9.472;2023-07-22T14:21:02;20.00;;;18.90;;
23594;SDS011;11975;47.674;9.472;2023-07-22T14:23:28;19.00;;;17.70;;
23594;SDS011;11975;47.674;9.472;2023-07-22T14:25:54;19.80;;;18.60;;
23594;SDS011;11975;47.674;9.472;2023-07-22T14:28:20;20.03;;;18.93;;